createdAt,value
2022-12-12T00:00:52.706Z,45.45
2022-12-12T00:03:25.944Z,46.70
2022-12-12T00:05:56.293Z,45.88
2022-12-12T00:08:30.118Z,44.97
2022-12-12T00:10:57.173Z,38.92
2022-12-12T00:13:31.407Z,32.47
2022-12-12T00:15:58.598Z,33.78
2022-12-12T00:18:31.855Z,32.20
2022-12-12T00:20:58.967Z,24.85
2022-12-12T00:23:33.121Z,27.65
2022-12-12T00:26:12.820Z,27.20
2022-12-12T00:28:39.730Z,29.63
2022-12-12T00:31:13.062Z,27.02
2022-12-12T00:33:47.026Z,24.63
2022-12-12T00:36:14.117Z,18.60
2022-12-12T00:38:47.803Z,24.65
2022-12-12T00:41:14.834Z,22.75
2022-12-12T00:43:48.860Z,24.80
2022-12-12T00:46:17.846Z,23.95
2022-12-12T00:48:51.873Z,21.95
2022-12-12T00:51:21.401Z,19.10
2022-12-12T00:53:55.992Z,16.63
2022-12-12T00:56:23.498Z,20.27
2022-12-12T00:58:56.907Z,17.27
2022-12-12T01:01:28.076Z,14.48
2022-12-12T01:04:01.831Z,15.07
2022-12-12T01:06:35.718Z,13.95
2022-12-12T01:09:02.968Z,14.00
2022-12-12T01:11:36.945Z,14.93
2022-12-12T01:14:10.882Z,14.02
2022-12-12T01:16:37.851Z,12.27
2022-12-12T01:19:10.890Z,17.33
2022-12-12T01:21:38.023Z,16.35
2022-12-12T01:24:11.860Z,14.68
2022-12-12T01:26:38.805Z,17.42
2022-12-12T01:29:11.888Z,15.88
2022-12-12T01:31:44.789Z,16.67
2022-12-12T01:34:11.785Z,15.82
2022-12-12T01:36:44.908Z,17.42
2022-12-12T01:39:17.913Z,17.30
2022-12-12T01:41:44.802Z,15.80
2022-12-12T01:44:48.830Z,15.98
2022-12-12T01:47:18.408Z,15.63
2022-12-12T01:50:01.916Z,17.13
2022-12-12T01:52:39.941Z,20.45
2022-12-12T01:55:14.440Z,15.63
2022-12-12T01:57:44.965Z,15.35
2022-12-12T02:00:18.850Z,17.02
2022-12-12T02:02:45.923Z,15.73
2022-12-12T02:05:26.056Z,15.60
2022-12-12T02:07:53.215Z,18.05
2022-12-12T02:10:26.928Z,21.10
2022-12-12T02:13:01.560Z,35.95
2022-12-12T02:15:36.996Z,43.45
2022-12-12T02:19:01.960Z,56.20
2022-12-12T02:22:11.924Z,29.77
2022-12-12T02:24:58.971Z,15.68
2022-12-12T02:28:01.086Z,14.77
2022-12-12T02:30:54.104Z,14.80
2022-12-12T02:33:57.902Z,16.20
2022-12-12T02:36:37.034Z,19.30
2022-12-12T02:39:27.833Z,20.88
2022-12-12T02:42:04.948Z,23.42
2022-12-12T02:44:41.786Z,21.52
2022-12-12T02:47:25.928Z,19.23
2022-12-12T02:50:04.790Z,18.20
2022-12-12T02:52:39.056Z,17.30
2022-12-12T02:55:07.557Z,17.80
2022-12-12T02:57:40.936Z,19.42
2022-12-12T03:00:18.439Z,17.70
2022-12-12T03:02:57.900Z,17.08
2022-12-12T03:05:58.929Z,19.73
2022-12-12T03:08:51.996Z,20.08
2022-12-12T03:12:11.931Z,21.17
2022-12-12T03:15:51.969Z,20.98
2022-12-12T03:19:00.923Z,24.38
2022-12-12T03:21:47.001Z,27.60
2022-12-12T03:24:36.882Z,28.90
2022-12-12T03:27:24.915Z,23.23
2022-12-12T03:30:21.420Z,27.40
2022-12-12T03:33:11.008Z,26.05
2022-12-12T03:35:46.697Z,19.92
2022-12-12T03:38:26.969Z,19.58
2022-12-12T03:41:05.975Z,21.75
2022-12-12T03:43:37.682Z,25.63
2022-12-12T03:46:25.935Z,18.92
2022-12-12T03:49:19.916Z,19.38
2022-12-12T03:51:55.667Z,26.40
2022-12-12T03:54:41.973Z,25.55
2022-12-12T03:57:19.039Z,25.80
2022-12-12T04:00:09.010Z,28.55
2022-12-12T04:02:53.077Z,27.65
2022-12-12T04:06:39.907Z,26.83
2022-12-12T04:09:18.317Z,29.55
2022-12-12T04:12:30.002Z,26.17
2022-12-12T04:15:52.984Z,29.27
2022-12-12T04:18:30.958Z,31.83
2022-12-12T04:21:16.000Z,30.42
2022-12-12T04:24:18.053Z,30.67
2022-12-12T04:27:22.894Z,33.10
2022-12-12T04:30:17.995Z,32.80
2022-12-12T04:33:19.016Z,30.98
2022-12-12T04:35:54.955Z,25.75
2022-12-12T04:38:23.300Z,33.42
2022-12-12T04:40:59.961Z,31.13
2022-12-12T04:43:29.939Z,35.40
2022-12-12T04:46:12.100Z,36.45
2022-12-12T04:48:51.855Z,33.17
2022-12-12T04:51:37.906Z,38.72
2022-12-12T04:54:26.584Z,37.40
2022-12-12T04:57:03.085Z,40.13
2022-12-12T04:59:30.076Z,37.15
2022-12-12T05:02:39.022Z,34.38
2022-12-12T05:05:29.955Z,35.30
2022-12-12T05:08:25.951Z,40.30
2022-12-12T05:10:55.300Z,30.02
2022-12-12T05:13:34.895Z,28.50
2022-12-12T05:16:04.112Z,34.15
2022-12-12T05:18:37.993Z,37.20
2022-12-12T05:21:11.929Z,37.08
2022-12-12T05:23:44.975Z,36.65
2022-12-12T05:26:27.390Z,31.75
2022-12-12T05:29:06.734Z,33.45
2022-12-12T05:31:34.443Z,35.33
2022-12-12T05:34:08.057Z,33.50
2022-12-12T05:36:41.972Z,34.80
2022-12-12T05:39:08.912Z,33.90
2022-12-12T05:41:41.942Z,33.38
2022-12-12T05:44:08.880Z,33.40
2022-12-12T05:46:41.980Z,39.88
2022-12-12T05:49:15.000Z,36.28
2022-12-12T05:51:47.952Z,34.45
2022-12-12T05:54:14.881Z,37.15
2022-12-12T05:56:41.879Z,35.30
2022-12-12T05:59:15.098Z,35.92
2022-12-12T06:01:42.144Z,38.70
2022-12-12T06:04:09.165Z,36.95
2022-12-12T06:06:42.997Z,34.22
2022-12-12T06:09:09.975Z,41.97
2022-12-12T06:11:36.920Z,37.53
2022-12-12T06:14:10.988Z,37.58
2022-12-12T06:16:37.942Z,37.13
2022-12-12T06:19:11.991Z,39.10
2022-12-12T06:21:38.980Z,35.97
2022-12-12T06:24:14.005Z,40.03
2022-12-12T06:26:41.062Z,38.50
2022-12-12T06:29:15.133Z,39.65
2022-12-12T06:31:42.111Z,30.23
2022-12-12T06:34:16.018Z,33.33
2022-12-12T06:36:43.012Z,29.52
2022-12-12T06:39:17.007Z,25.95
2022-12-12T06:41:50.999Z,24.67
2022-12-12T06:44:18.048Z,21.25
2022-12-12T06:46:45.181Z,19.35
2022-12-12T06:49:19.008Z,19.77
2022-12-12T06:51:46.110Z,22.55
2022-12-12T06:54:14.572Z,20.88
2022-12-12T06:56:48.673Z,19.15
2022-12-12T06:59:16.347Z,18.13
2022-12-12T07:01:50.006Z,21.20
2022-12-12T07:04:17.101Z,22.60
2022-12-12T07:06:51.022Z,19.85
2022-12-12T07:09:18.224Z,23.95
2022-12-12T07:11:52.040Z,22.25
2022-12-12T07:14:25.073Z,25.15
2022-12-12T07:16:52.244Z,18.55
2022-12-12T07:19:26.016Z,22.80
2022-12-12T07:21:52.903Z,34.92
2022-12-12T07:24:26.045Z,31.55
2022-12-12T07:26:52.987Z,26.65
2022-12-12T07:29:25.987Z,26.05
2022-12-12T07:31:52.895Z,26.33
2022-12-12T07:34:26.170Z,30.42
2022-12-12T07:36:55.445Z,35.33
2022-12-12T07:39:32.979Z,31.17
2022-12-12T07:42:00.096Z,32.03
2022-12-12T07:44:27.009Z,33.40
2022-12-12T07:47:00.273Z,27.77
2022-12-12T07:49:35.130Z,27.63
2022-12-12T07:52:02.381Z,31.98
2022-12-12T07:54:36.345Z,34.63
2022-12-12T07:57:03.490Z,32.58
2022-12-12T07:59:37.063Z,30.40
2022-12-12T08:02:04.210Z,30.00
2022-12-12T08:04:38.238Z,29.70
2022-12-12T08:07:08.475Z,26.75
2022-12-12T08:09:43.048Z,26.42
2022-12-12T08:12:10.023Z,30.67
2022-12-12T08:14:37.477Z,111.25
2022-12-12T08:17:11.070Z,86.38
2022-12-12T08:19:38.203Z,58.60
2022-12-12T08:22:11.991Z,39.42
2022-12-12T08:24:45.732Z,43.10
2022-12-12T08:27:18.985Z,37.05
2022-12-12T08:29:45.994Z,31.45
2022-12-12T08:32:19.148Z,40.00
2022-12-12T08:34:49.161Z,32.08
2022-12-12T08:37:23.126Z,34.85
2022-12-12T08:39:57.071Z,30.65
2022-12-12T08:42:24.043Z,35.20
2022-12-12T08:44:51.291Z,29.90
2022-12-12T08:47:25.124Z,32.15
2022-12-12T08:49:59.075Z,33.25
2022-12-12T08:52:26.127Z,35.67
2022-12-12T08:55:00.235Z,37.38
2022-12-12T08:57:27.293Z,36.50
2022-12-12T09:00:01.092Z,37.75
2022-12-12T09:02:28.204Z,34.40
2022-12-12T09:05:02.163Z,33.08
2022-12-12T09:07:29.155Z,28.38
2022-12-12T09:09:56.097Z,30.45
2022-12-12T09:12:30.152Z,29.88
2022-12-12T09:14:57.110Z,33.63
2022-12-12T09:17:30.122Z,29.30
2022-12-12T09:20:04.045Z,30.67
2022-12-12T09:22:30.973Z,31.50
2022-12-12T09:25:04.141Z,33.25
2022-12-12T09:27:37.987Z,28.35
2022-12-12T09:30:12.044Z,35.70
2022-12-12T09:32:46.123Z,33.83
2022-12-12T09:35:20.301Z,37.42
2022-12-12T09:37:54.240Z,31.20
2022-12-12T09:40:55.569Z,32.35
2022-12-12T09:43:29.693Z,35.20
2022-12-12T09:46:04.643Z,36.72
2022-12-12T09:48:47.927Z,38.80
2022-12-12T09:51:21.234Z,37.37
2022-12-12T10:01:56.282Z,40.00
2022-12-12T10:05:01.243Z,37.50
2022-12-12T10:07:40.673Z,35.33
2022-12-12T10:10:29.236Z,39.53
2022-12-12T10:12:56.741Z,38.80
2022-12-12T10:15:46.153Z,41.78
2022-12-12T10:18:23.471Z,39.58
2022-12-12T10:21:00.262Z,35.50
2022-12-12T10:23:38.370Z,32.17
2022-12-12T10:29:06.256Z,33.83
2022-12-12T10:45:33.943Z,32.75
2022-12-12T10:59:04.371Z,31.65
2022-12-12T11:04:28.867Z,28.40
2022-12-12T11:06:56.432Z,32.03
2022-12-12T11:15:06.311Z,36.15
2022-12-12T11:20:23.928Z,34.83
2022-12-12T11:22:58.128Z,36.53
2022-12-12T11:25:30.866Z,31.48
2022-12-12T11:28:07.217Z,31.40
2022-12-12T11:30:37.746Z,34.78
2022-12-12T11:33:13.533Z,32.05
2022-12-12T11:35:47.093Z,34.90
2022-12-12T11:38:26.185Z,31.58
2022-12-12T11:41:02.376Z,35.15
2022-12-12T11:43:43.305Z,36.97
2022-12-12T11:46:34.574Z,36.38
2022-12-12T11:49:10.146Z,39.13
2022-12-12T11:51:41.531Z,36.60
2022-12-12T11:54:36.063Z,36.60
2022-12-12T11:57:19.080Z,36.97
2022-12-12T11:59:46.003Z,31.40
2022-12-12T12:02:27.100Z,34.00
2022-12-12T12:05:55.116Z,33.47
2022-12-12T12:08:40.152Z,32.05
2022-12-12T12:11:50.097Z,31.73
2022-12-12T12:15:09.083Z,31.80
2022-12-12T12:18:01.413Z,31.17
2022-12-12T12:20:42.133Z,30.55
2022-12-12T12:23:25.505Z,30.08
2022-12-12T12:26:03.161Z,27.67
2022-12-12T12:29:32.135Z,28.10
2022-12-12T12:32:18.294Z,27.27
2022-12-12T12:35:19.195Z,32.83
2022-12-12T12:38:11.397Z,26.45
2022-12-12T12:41:01.317Z,26.67
2022-12-12T12:44:10.753Z,26.70
2022-12-12T12:46:59.218Z,29.13
2022-12-12T12:50:20.141Z,25.05
2022-12-12T12:53:00.343Z,25.85
2022-12-12T12:55:40.038Z,25.52
2022-12-12T12:58:14.592Z,26.85
2022-12-12T13:00:42.125Z,25.50
2022-12-12T13:03:26.564Z,27.23
2022-12-12T13:06:03.315Z,27.65
2022-12-12T13:09:07.040Z,23.02
2022-12-12T13:11:39.892Z,24.30
2022-12-12T13:14:30.275Z,27.02
2022-12-12T13:16:59.696Z,23.75
2022-12-12T13:19:49.206Z,26.83
2022-12-12T13:22:41.664Z,23.17
2022-12-12T13:25:21.054Z,25.95
2022-12-12T13:27:58.668Z,25.52
2022-12-12T13:30:36.477Z,31.52
2022-12-12T13:33:18.763Z,30.50
2022-12-12T13:35:56.335Z,27.77
2022-12-12T13:38:31.567Z,27.52
2022-12-12T13:41:08.297Z,27.00
2022-12-12T13:43:38.413Z,25.20
2022-12-12T13:46:33.173Z,24.10
2022-12-12T13:49:06.971Z,24.20
2022-12-12T13:51:46.253Z,25.55
2022-12-12T13:54:14.644Z,25.85
2022-12-12T13:56:52.288Z,23.48
2022-12-12T13:59:22.478Z,23.30
2022-12-12T14:02:07.387Z,22.48
2022-12-12T14:04:37.054Z,23.33
2022-12-12T14:07:25.425Z,23.77
2022-12-12T14:09:59.000Z,28.25
2022-12-12T14:12:37.160Z,25.50
2022-12-12T14:15:28.347Z,26.42
2022-12-12T14:18:09.808Z,27.10
2022-12-12T14:20:37.179Z,26.02
2022-12-12T14:23:20.225Z,27.73
2022-12-12T14:25:54.310Z,28.40
2022-12-12T14:28:33.081Z,26.38
2022-12-12T14:31:19.997Z,25.50
2022-12-12T14:34:24.353Z,27.95
2022-12-12T14:37:35.229Z,27.00
2022-12-12T14:40:24.315Z,25.20
2022-12-12T14:43:20.402Z,24.92
2022-12-12T14:45:55.252Z,27.10
2022-12-12T14:48:38.151Z,29.33
2022-12-12T14:51:28.984Z,24.30
2022-12-12T14:54:04.196Z,29.17
2022-12-12T14:56:52.950Z,30.95
2022-12-12T14:59:42.178Z,31.42
2022-12-12T15:02:26.343Z,29.13
2022-12-12T15:05:04.191Z,33.15
2022-12-12T15:07:43.170Z,26.98
2022-12-12T15:10:23.480Z,31.20
2022-12-12T15:12:57.186Z,27.83
2022-12-12T15:15:32.294Z,25.73
2022-12-12T15:18:07.149Z,26.55
2022-12-12T15:20:34.201Z,31.10
2022-12-12T15:23:12.298Z,27.25
2022-12-12T15:25:48.341Z,27.55
2022-12-12T15:28:23.195Z,25.83
2022-12-12T15:30:53.122Z,27.67
2022-12-12T15:33:33.543Z,33.97
2022-12-12T15:36:03.236Z,31.95
2022-12-12T15:38:37.228Z,29.73
2022-12-12T15:41:09.715Z,28.85
2022-12-12T15:43:45.522Z,28.33
2022-12-12T15:46:22.289Z,25.25
2022-12-12T15:48:56.329Z,29.70
2022-12-12T15:51:35.293Z,27.60
2022-12-12T15:54:02.292Z,24.98
2022-12-12T15:56:36.261Z,27.52
2022-12-12T15:59:09.470Z,28.92
2022-12-12T16:01:43.357Z,27.75
2022-12-12T16:04:17.267Z,28.88
2022-12-12T16:06:52.274Z,28.45
2022-12-12T16:09:26.371Z,26.13
2022-12-12T16:12:04.534Z,29.65
2022-12-12T16:14:41.273Z,37.20
2022-12-12T16:17:24.267Z,36.38
2022-12-12T16:20:02.356Z,32.83
2022-12-12T16:22:51.259Z,29.73
2022-12-12T16:25:35.249Z,27.77
2022-12-12T16:28:36.284Z,29.58
2022-12-12T16:31:05.906Z,28.25
2022-12-12T16:33:44.324Z,30.58
2022-12-12T16:36:23.404Z,33.85
2022-12-12T16:38:50.607Z,31.63
2022-12-12T16:41:24.407Z,32.42
2022-12-12T16:43:58.463Z,28.80
2022-12-12T16:46:32.275Z,30.83
2022-12-12T16:48:59.759Z,33.17
2022-12-12T16:51:39.451Z,32.53
2022-12-12T16:54:13.270Z,34.55
2022-12-12T16:56:40.429Z,33.50
2022-12-12T16:59:14.334Z,29.08
2022-12-12T17:01:41.434Z,31.58
2022-12-12T17:04:25.327Z,33.15
2022-12-12T17:06:52.450Z,34.20
2022-12-12T17:09:29.956Z,31.25
2022-12-12T17:12:04.326Z,31.15
2022-12-12T17:14:31.439Z,31.30
2022-12-12T17:17:05.385Z,29.33
2022-12-12T17:19:32.567Z,33.05
2022-12-12T17:22:06.303Z,31.30
2022-12-12T17:24:40.281Z,29.65
2022-12-12T17:27:13.246Z,31.55
2022-12-12T17:29:40.291Z,31.20
2022-12-12T17:32:14.250Z,28.80
2022-12-12T17:34:41.635Z,27.80
2022-12-12T17:37:15.356Z,32.15
2022-12-12T17:39:49.329Z,28.55
2022-12-12T17:42:23.323Z,29.92
2022-12-12T17:44:57.361Z,29.33
2022-12-12T17:47:24.399Z,26.90
2022-12-12T17:49:58.354Z,28.55
2022-12-12T17:52:32.248Z,26.85
2022-12-12T17:55:54.695Z,28.17
2022-12-12T17:57:53.390Z,29.23
2022-12-12T18:00:20.714Z,29.88
2022-12-12T18:03:01.512Z,28.90
2022-12-12T18:05:28.591Z,27.33
2022-12-12T18:08:02.291Z,29.67
2022-12-12T18:10:29.419Z,32.22
2022-12-12T18:13:03.290Z,30.83
2022-12-12T18:15:30.213Z,34.53
2022-12-12T18:18:03.246Z,32.20
2022-12-12T18:20:36.278Z,32.28
2022-12-12T18:23:09.324Z,27.48
2022-12-12T18:25:36.798Z,33.40
2022-12-12T18:28:10.272Z,36.28
2022-12-12T18:30:40.278Z,40.70
2022-12-12T18:33:17.230Z,38.40
2022-12-12T18:35:50.372Z,42.15
2022-12-12T18:38:17.376Z,39.30
2022-12-12T18:40:44.536Z,43.15
2022-12-12T18:43:20.285Z,40.85
2022-12-12T18:45:47.332Z,46.83
2022-12-12T18:48:21.365Z,50.20
2022-12-12T18:50:55.353Z,48.75
2022-12-12T18:53:29.265Z,43.10
2022-12-12T18:55:56.209Z,44.58
2022-12-12T18:58:29.276Z,38.03
2022-12-12T19:01:12.333Z,38.75
2022-12-12T19:03:40.459Z,40.38
2022-12-12T19:06:16.340Z,45.25
2022-12-12T19:08:50.282Z,39.70
2022-12-12T19:11:17.363Z,38.08
2022-12-12T19:13:51.277Z,34.47
2022-12-12T19:16:19.331Z,33.83
2022-12-12T19:18:53.297Z,35.47
2022-12-12T19:21:29.268Z,34.33
2022-12-12T19:23:56.180Z,35.45
2022-12-12T19:26:32.298Z,35.22
2022-12-12T19:29:14.280Z,38.10
2022-12-12T19:31:41.317Z,34.25
2022-12-12T19:34:15.307Z,30.65
2022-12-12T19:36:42.332Z,30.08
2022-12-12T19:39:17.303Z,27.13
2022-12-12T19:41:51.253Z,30.67
2022-12-12T19:44:24.231Z,30.75
2022-12-12T19:46:51.276Z,28.95
2022-12-12T19:49:31.245Z,26.38
2022-12-12T19:52:07.914Z,31.20
2022-12-12T19:54:44.457Z,30.17
2022-12-12T19:57:11.411Z,30.23
2022-12-12T19:59:45.316Z,32.50
2022-12-12T20:02:12.314Z,33.22
2022-12-12T20:04:45.325Z,31.65
2022-12-12T20:07:12.450Z,30.38
2022-12-12T20:09:39.406Z,29.95
2022-12-12T20:12:13.312Z,32.00
2022-12-12T20:14:46.330Z,27.92
2022-12-12T20:17:13.224Z,32.08
2022-12-12T20:19:46.356Z,25.77
2022-12-12T20:22:20.278Z,28.67
2022-12-12T20:24:47.532Z,29.75
2022-12-12T20:27:21.348Z,30.60
2022-12-12T20:29:48.354Z,32.65
2022-12-12T20:32:15.348Z,29.33
2022-12-12T20:34:49.330Z,30.65
2022-12-12T20:37:20.010Z,31.10
2022-12-12T20:39:54.348Z,34.40
2022-12-12T20:42:21.331Z,70.70
2022-12-12T20:44:55.273Z,88.18
2022-12-12T20:47:28.383Z,54.75
2022-12-12T20:49:55.320Z,42.55
2022-12-12T20:52:28.300Z,38.35
2022-12-12T20:55:01.321Z,37.13
2022-12-12T20:57:28.302Z,61.75
2022-12-12T21:00:01.334Z,102.68
2022-12-12T21:02:30.333Z,112.28
2022-12-12T21:05:04.299Z,116.50
2022-12-12T21:07:32.165Z,70.65
2022-12-12T21:10:05.392Z,55.55
2022-12-12T21:12:32.391Z,46.75
2022-12-12T21:15:02.730Z,38.95
2022-12-12T21:17:36.362Z,38.90
2022-12-12T21:20:24.333Z,37.42
2022-12-12T21:22:57.348Z,35.40
2022-12-12T21:25:24.309Z,38.13
2022-12-12T21:27:57.382Z,36.60
2022-12-12T21:30:24.418Z,36.72
2022-12-12T21:32:51.394Z,36.92
2022-12-12T21:35:25.465Z,34.83
2022-12-12T21:37:52.436Z,36.90
2022-12-12T21:40:19.746Z,38.58
2022-12-12T21:42:53.324Z,40.03
2022-12-12T21:45:20.318Z,43.30
2022-12-12T21:47:53.362Z,39.67
2022-12-12T21:50:20.300Z,41.40
2022-12-12T21:52:53.336Z,42.25
2022-12-12T21:55:20.389Z,46.20
2022-12-12T21:57:53.412Z,43.53
2022-12-12T22:00:20.526Z,42.60
2022-12-12T22:02:54.417Z,40.33
2022-12-12T22:05:28.337Z,39.08
2022-12-12T22:07:55.344Z,36.30
2022-12-12T22:10:29.429Z,40.38
2022-12-12T22:12:57.038Z,43.95
2022-12-12T22:15:31.457Z,41.92
2022-12-12T22:17:58.585Z,37.35
2022-12-12T22:20:32.374Z,37.88
2022-12-12T22:22:59.271Z,35.67
2022-12-12T22:25:32.374Z,33.78
2022-12-12T22:27:59.342Z,36.13
2022-12-12T22:30:35.685Z,33.72
2022-12-12T22:33:02.760Z,37.67
2022-12-12T22:35:36.508Z,37.30
2022-12-12T22:38:03.631Z,35.22
2022-12-12T22:40:37.421Z,36.88
2022-12-12T22:43:04.334Z,37.97
2022-12-12T22:45:37.381Z,34.83
2022-12-12T22:48:04.480Z,38.08
2022-12-12T22:50:38.496Z,40.28
2022-12-12T22:53:12.381Z,42.28
2022-12-12T22:55:46.396Z,36.83
2022-12-12T22:58:13.321Z,41.20
2022-12-12T23:00:40.260Z,32.70
2022-12-12T23:03:13.583Z,36.10
2022-12-12T23:05:40.651Z,44.15
2022-12-12T23:08:14.391Z,41.22
2022-12-12T23:10:41.339Z,41.53
2022-12-12T23:13:14.483Z,38.95
2022-12-12T23:15:48.449Z,36.17
2022-12-12T23:18:15.435Z,39.30
2022-12-12T23:20:45.203Z,44.03
2022-12-12T23:23:18.489Z,43.15
2022-12-12T23:25:52.366Z,43.53
2022-12-12T23:28:19.296Z,41.33
2022-12-12T23:30:52.387Z,44.95
2022-12-12T23:33:19.639Z,38.85
2022-12-12T23:35:54.455Z,40.30
2022-12-12T23:38:23.622Z,40.33
2022-12-12T23:40:57.351Z,44.85
2022-12-12T23:43:24.277Z,41.22
2022-12-12T23:45:58.463Z,44.00
2022-12-12T23:48:35.580Z,39.38
2022-12-12T23:51:09.773Z,40.88
2022-12-12T23:53:43.435Z,39.95
2022-12-12T23:56:21.553Z,39.40
2022-12-12T23:58:57.812Z,39.67
